sensor_id;sensor_type;location;lat;lon;timestamp;pressure;altitude;pressure_sealevel;temperature;humidity
36304;BME280;22335;49.800;8.596;2023-03-26T00:04:50;99914.81;;;13.46;53.98
36304;BME280;22335;49.800;8.596;2023-03-26T00:11:35;99948.28;;;13.48;54.10
36304;BME280;22335;49.800;8.596;2023-03-26T00:18:22;99942.22;;;13.29;54.45
36304;BME280;22335;49.800;8.596;2023-03-26T00:25:12;99940.84;;;13.18;54.17
36304;BME280;22335;49.800;8.596;2023-03-26T00:31:57;99939.09;;;12.99;54.79
36304;BME280;22335;49.800;8.596;2023-03-26T00:38:42;99939.66;;;12.87;55.05
36304;BME280;22335;49.800;8.596;2023-03-26T00:45:27;99902.25;;;12.46;55.10
36304;BME280;22335;49.800;8.596;2023-03-26T00:52:12;99892.09;;;12.47;55.23
36304;BME280;22335;49.800;8.596;2023-03-26T00:58:59;99929.66;;;12.83;55.61
36304;BME280;22335;49.800;8.596;2023-03-26T01:05:46;99919.03;;;12.90;55.56
36304;BME280;22335;49.800;8.596;2023-03-26T01:12:35;99910.72;;;12.81;55.58
36304;BME280;22335;49.800;8.596;2023-03-26T01:19:24;99905.63;;;12.66;55.68
36304;BME280;22335;49.800;8.596;2023-03-26T01:26:30;99893.09;;;12.51;56.11
36304;BME280;22335;49.800;8.596;2023-03-26T01:33:26;99885.50;;;12.48;56.28
36304;BME280;22335;49.800;8.596;2023-03-26T01:40:21;99874.31;;;12.44;56.66
36304;BME280;22335;49.800;8.596;2023-03-26T01:47:10;99825.28;;;12.20;56.60
36304;BME280;22335;49.800;8.596;2023-03-26T01:53:55;99860.13;;;12.42;56.69
36304;BME280;22335;49.800;8.596;2023-03-26T02:00:44;99837.38;;;12.42;57.05
36304;BME280;22335;49.800;8.596;2023-03-26T02:07:41;99791.75;;;12.23;57.00
36304;BME280;22335;49.800;8.596;2023-03-26T02:14:28;99813.31;;;12.39;57.07
36304;BME280;22335;49.800;8.596;2023-03-26T02:21:14;99811.50;;;12.34;57.97
36304;BME280;22335;49.800;8.596;2023-03-26T02:28:02;99796.41;;;12.23;58.02
36304;BME280;22335;49.800;8.596;2023-03-26T02:34:46;99788.50;;;12.21;58.18
36304;BME280;22335;49.800;8.596;2023-03-26T02:41:32;99792.25;;;12.26;58.10
36304;BME280;22335;49.800;8.596;2023-03-26T03:03:26;99755.84;;;12.34;57.88
36304;BME280;22335;49.800;8.596;2023-03-26T03:10:13;99754.19;;;12.55;57.56
36304;BME280;22335;49.800;8.596;2023-03-26T03:17:19;99739.91;;;12.67;57.56
36304;BME280;22335;49.800;8.596;2023-03-26T03:24:04;99657.63;;;12.36;57.17
36304;BME280;22335;49.800;8.596;2023-03-26T03:30:55;99718.50;;;12.86;57.13
36304;BME280;22335;49.800;8.596;2023-03-26T03:37:44;99701.91;;;12.91;56.75
36304;BME280;22335;49.800;8.596;2023-03-26T03:44:29;99676.16;;;12.79;56.71
36304;BME280;22335;49.800;8.596;2023-03-26T03:51:14;99690.59;;;13.02;56.33
36304;BME280;22335;49.800;8.596;2023-03-26T03:58:09;99690.78;;;13.05;56.21
36304;BME280;22335;49.800;8.596;2023-03-26T04:04:55;99671.22;;;12.98;56.31
36304;BME280;22335;49.800;8.596;2023-03-26T04:11:40;99658.44;;;12.93;56.61
36304;BME280;22335;49.800;8.596;2023-03-26T04:18:50;99651.66;;;12.91;57.25
36304;BME280;22335;49.800;8.596;2023-03-26T04:25:34;99630.34;;;12.88;57.46
36304;BME280;22335;49.800;8.596;2023-03-26T04:32:30;99612.78;;;12.98;57.26
36304;BME280;22335;49.800;8.596;2023-03-26T04:39:16;99604.06;;;13.04;57.35
36304;BME280;22335;49.800;8.596;2023-03-26T04:46:20;99580.63;;;13.15;57.03
36304;BME280;22335;49.800;8.596;2023-03-26T04:53:16;99558.19;;;13.40;56.65
36304;BME280;22335;49.800;8.596;2023-03-26T05:00:20;99548.00;;;13.49;56.29
36304;BME280;22335;49.800;8.596;2023-03-26T05:07:10;99451.91;;;13.23;56.20
36304;BME280;22335;49.800;8.596;2023-03-26T05:14:03;99530.94;;;13.81;55.66
36304;BME280;22335;49.800;8.596;2023-03-26T05:20:47;99491.44;;;13.48;55.48
36304;BME280;22335;49.800;8.596;2023-03-26T05:27:33;99508.34;;;13.67;55.95
36304;BME280;22335;49.800;8.596;2023-03-26T05:34:18;99465.94;;;13.38;55.90
36304;BME280;22335;49.800;8.596;2023-03-26T05:41:06;99426.28;;;13.01;55.94
36304;BME280;22335;49.800;8.596;2023-03-26T05:47:56;99476.13;;;13.38;56.03
36304;BME280;22335;49.800;8.596;2023-03-26T05:54:41;99465.81;;;13.35;56.37
36304;BME280;22335;49.800;8.596;2023-03-26T06:01:44;99413.34;;;13.10;56.24
36304;BME280;22335;49.800;8.596;2023-03-26T06:08:49;99441.22;;;13.38;56.26
36304;BME280;22335;49.800;8.596;2023-03-26T06:15:33;99433.44;;;13.49;56.73
36304;BME280;22335;49.800;8.596;2023-03-26T06:22:27;99424.56;;;13.44;56.41
36304;BME280;22335;49.800;8.596;2023-03-26T06:29:32;99429.13;;;13.31;57.02
36304;BME280;22335;49.800;8.596;2023-03-26T06:36:31;99423.19;;;13.03;58.67
36304;BME280;22335;49.800;8.596;2023-03-26T06:43:15;99409.53;;;12.77;59.83
36304;BME280;22335;49.800;8.596;2023-03-26T06:50:06;99401.16;;;12.64;60.59
36304;BME280;22335;49.800;8.596;2023-03-26T06:57:19;99389.84;;;12.57;61.62
36304;BME280;22335;49.800;8.596;2023-03-26T07:04:21;99391.13;;;12.68;61.55
36304;BME280;22335;49.800;8.596;2023-03-26T07:11:31;99374.97;;;12.84;61.93
36304;BME280;22335;49.800;8.596;2023-03-26T07:18:44;99374.81;;;12.81;62.06
36304;BME280;22335;49.800;8.596;2023-03-26T07:25:33;99347.38;;;12.81;62.10
36304;BME280;22335;49.800;8.596;2023-03-26T07:32:39;99338.00;;;12.82;62.05
36304;BME280;22335;49.800;8.596;2023-03-26T07:39:45;99322.94;;;12.97;61.98
36304;BME280;22335;49.800;8.596;2023-03-26T07:46:59;99265.50;;;12.91;61.78
36304;BME280;22335;49.800;8.596;2023-03-26T07:54:07;99285.47;;;13.39;61.43
36304;BME280;22335;49.800;8.596;2023-03-26T08:01:17;99287.88;;;13.41;61.60
36304;BME280;22335;49.800;8.596;2023-03-26T08:08:12;99280.25;;;13.46;61.44
36304;BME280;22335;49.800;8.596;2023-03-26T08:15:40;99279.94;;;13.48;62.17
36304;BME280;22335;49.800;8.596;2023-03-26T08:22:30;99279.53;;;13.58;61.80
36304;BME280;22335;49.800;8.596;2023-03-26T08:29:20;99286.22;;;13.48;61.81
36304;BME280;22335;49.800;8.596;2023-03-26T08:36:09;99229.22;;;12.86;62.09
36304;BME280;22335;49.800;8.596;2023-03-26T08:43:11;99303.41;;;12.98;63.04
36304;BME280;22335;49.800;8.596;2023-03-26T09:06:07;99252.50;;;12.07;66.23
36304;BME280;22335;49.800;8.596;2023-03-26T09:13:33;99241.88;;;11.88;66.88
36304;BME280;22335;49.800;8.596;2023-03-26T09:20:54;99226.56;;;11.87;67.70
36304;BME280;22335;49.800;8.596;2023-03-26T09:35:53;99216.56;;;11.99;66.67
36304;BME280;22335;49.800;8.596;2023-03-26T09:42:48;99222.84;;;11.91;66.56
36304;BME280;22335;49.800;8.596;2023-03-26T09:49:47;99228.31;;;11.91;66.63
36304;BME280;22335;49.800;8.596;2023-03-26T09:56:44;99210.56;;;12.06;66.54
36304;BME280;22335;49.800;8.596;2023-03-26T10:03:39;99181.59;;;11.88;66.48
36304;BME280;22335;49.800;8.596;2023-03-26T10:10:34;99200.84;;;12.26;67.11
36304;BME280;22335;49.800;8.596;2023-03-26T10:17:32;99191.75;;;12.52;69.08
36304;BME280;22335;49.800;8.596;2023-03-26T10:24:34;99184.03;;;12.83;68.47
36304;BME280;22335;49.800;8.596;2023-03-26T10:31:42;99162.28;;;12.99;67.48
36304;BME280;22335;49.800;8.596;2023-03-26T10:38:47;99171.00;;;13.22;68.20
36304;BME280;22335;49.800;8.596;2023-03-26T10:45:48;99093.56;;;13.37;68.70
36304;BME280;22335;49.800;8.596;2023-03-26T10:52:45;99118.59;;;13.90;67.50
36304;BME280;22335;49.800;8.596;2023-03-26T10:59:35;99120.69;;;14.18;67.56
36304;BME280;22335;49.800;8.596;2023-03-26T11:06:36;99102.41;;;14.22;65.89
36304;BME280;22335;49.800;8.596;2023-03-26T11:13:40;99120.13;;;14.24;65.88
36304;BME280;22335;49.800;8.596;2023-03-26T11:20:35;99113.84;;;14.24;65.78
36304;BME280;22335;49.800;8.596;2023-03-26T11:27:26;99106.41;;;14.12;66.07
36304;BME280;22335;49.800;8.596;2023-03-26T11:34:21;99055.63;;;14.10;66.29
36304;BME280;22335;49.800;8.596;2023-03-26T11:41:13;99040.84;;;14.02;65.95
36304;BME280;22335;49.800;8.596;2023-03-26T11:48:10;99096.09;;;14.46;65.79
36304;BME280;22335;49.800;8.596;2023-03-26T11:54:56;99083.94;;;14.47;65.92
36304;BME280;22335;49.800;8.596;2023-03-26T12:01:45;99091.84;;;14.48;67.19
36304;BME280;22335;49.800;8.596;2023-03-26T12:08:33;99089.13;;;14.61;66.91
36304;BME280;22335;49.800;8.596;2023-03-26T12:15:24;99088.50;;;14.92;65.32
36304;BME280;22335;49.800;8.596;2023-03-26T12:22:28;99090.56;;;15.35;62.47
36304;BME280;22335;49.800;8.596;2023-03-26T12:29:17;99085.56;;;15.81;60.28
36304;BME280;22335;49.800;8.596;2023-03-26T12:36:16;99073.75;;;15.97;57.95
36304;BME280;22335;49.800;8.596;2023-03-26T12:43:27;99071.19;;;16.04;57.71
36304;BME280;22335;49.800;8.596;2023-03-26T12:50:18;99071.56;;;16.18;55.42
36304;BME280;22335;49.800;8.596;2023-03-26T12:57:22;99052.78;;;15.92;54.03
36304;BME280;22335;49.800;8.596;2023-03-26T13:04:29;99074.56;;;16.13;53.00
36304;BME280;22335;49.800;8.596;2023-03-26T13:11:24;99088.47;;;16.32;52.51
36304;BME280;22335;49.800;8.596;2023-03-26T13:18:21;99085.78;;;16.52;51.25
36304;BME280;22335;49.800;8.596;2023-03-26T13:25:20;99091.03;;;16.57;51.88
36304;BME280;22335;49.800;8.596;2023-03-26T13:32:14;99041.72;;;16.40;51.09
36304;BME280;22335;49.800;8.596;2023-03-26T13:39:13;99074.34;;;16.69;51.51
36304;BME280;22335;49.800;8.596;2023-03-26T13:46:11;99071.47;;;16.81;51.21
36304;BME280;22335;49.800;8.596;2023-03-26T13:53:00;99067.09;;;16.96;51.80
36304;BME280;22335;49.800;8.596;2023-03-26T13:59:49;99058.53;;;17.01;50.78
36304;BME280;22335;49.800;8.596;2023-03-26T14:06:43;99048.13;;;16.95;49.49
36304;BME280;22335;49.800;8.596;2023-03-26T14:13:35;99039.53;;;17.00;51.23
36304;BME280;22335;49.800;8.596;2023-03-26T14:20:54;99035.91;;;17.15;50.62
36304;BME280;22335;49.800;8.596;2023-03-26T14:28:00;99031.97;;;17.36;50.47
36304;BME280;22335;49.800;8.596;2023-03-26T14:35:10;99015.38;;;17.55;50.76
36304;BME280;22335;49.800;8.596;2023-03-26T14:42:06;99008.81;;;17.63;50.21
36304;BME280;22335;49.800;8.596;2023-03-26T14:49:07;98991.09;;;17.68;49.53
36304;BME280;22335;49.800;8.596;2023-03-26T15:11:33;98979.66;;;17.46;47.28
36304;BME280;22335;49.800;8.596;2023-03-26T15:26:44;98983.69;;;17.29;47.53
36304;BME280;22335;49.800;8.596;2023-03-26T15:41:40;99018.31;;;17.04;47.02
36304;BME280;22335;49.800;8.596;2023-03-26T15:48:54;99028.06;;;16.98;47.24
36304;BME280;22335;49.800;8.596;2023-03-26T15:55:57;99032.41;;;16.79;47.32
36304;BME280;22335;49.800;8.596;2023-03-26T16:02:58;99014.72;;;16.49;47.25
36304;BME280;22335;49.800;8.596;2023-03-26T16:09:59;99001.97;;;16.09;47.16
36304;BME280;22335;49.800;8.596;2023-03-26T16:17:00;99135.81;;;16.34;46.28
36304;BME280;22335;49.800;8.596;2023-03-26T16:23:53;99090.44;;;15.44;47.60
36304;BME280;22335;49.800;8.596;2023-03-26T16:30:39;99167.97;;;15.30;48.97
36304;BME280;22335;49.800;8.596;2023-03-26T16:37:38;99166.19;;;14.85;50.20
36304;BME280;22335;49.800;8.596;2023-03-26T16:44:31;99161.72;;;14.68;50.47
36304;BME280;22335;49.800;8.596;2023-03-26T16:51:26;99154.47;;;14.64;50.97
36304;BME280;22335;49.800;8.596;2023-03-26T16:58:35;99132.00;;;14.74;52.14
36304;BME280;22335;49.800;8.596;2023-03-26T17:05:34;99136.56;;;15.07;52.03
36304;BME280;22335;49.800;8.596;2023-03-26T17:12:26;99137.53;;;15.27;52.26
36304;BME280;22335;49.800;8.596;2023-03-26T17:19:23;99146.69;;;15.43;52.14
36304;BME280;22335;49.800;8.596;2023-03-26T17:26:18;99148.38;;;15.48;51.90
36304;BME280;22335;49.800;8.596;2023-03-26T17:33:13;99143.47;;;15.41;51.67
36304;BME280;22335;49.800;8.596;2023-03-26T17:40:44;99139.47;;;15.38;51.60
36304;BME280;22335;49.800;8.596;2023-03-26T17:47:37;99125.81;;;15.30;51.19
36304;BME280;22335;49.800;8.596;2023-03-26T17:54:26;99135.00;;;15.34;51.04
36304;BME280;22335;49.800;8.596;2023-03-26T18:01:24;99112.84;;;14.90;50.68
36304;BME280;22335;49.800;8.596;2023-03-26T18:15:38;99119.06;;;14.74;50.71
36304;BME280;22335;49.800;8.596;2023-03-26T18:22:29;99160.56;;;14.94;50.62
36304;BME280;22335;49.800;8.596;2023-03-26T18:29:20;99172.72;;;14.81;50.58
36304;BME280;22335;49.800;8.596;2023-03-26T18:36:07;99180.84;;;14.89;50.54
36304;BME280;22335;49.800;8.596;2023-03-26T18:42:54;99179.63;;;14.87;50.51
36304;BME280;22335;49.800;8.596;2023-03-26T18:49:41;99182.69;;;14.85;50.58
36304;BME280;22335;49.800;8.596;2023-03-26T18:56:28;99146.59;;;14.62;51.04
36304;BME280;22335;49.800;8.596;2023-03-26T19:03:15;99174.44;;;14.73;50.90
36304;BME280;22335;49.800;8.596;2023-03-26T19:10:05;99184.75;;;14.76;50.79
36304;BME280;22335;49.800;8.596;2023-03-26T19:16:52;99191.06;;;14.76;50.60
36304;BME280;22335;49.800;8.596;2023-03-26T19:23:39;99183.50;;;14.86;51.12
36304;BME280;22335;49.800;8.596;2023-03-26T19:30:28;99189.00;;;14.86;51.41
36304;BME280;22335;49.800;8.596;2023-03-26T19:37:19;99191.84;;;14.89;51.28
36304;BME280;22335;49.800;8.596;2023-03-26T19:44:11;99192.31;;;14.91;51.09
36304;BME280;22335;49.800;8.596;2023-03-26T19:51:03;99152.41;;;14.73;51.46
36304;BME280;22335;49.800;8.596;2023-03-26T19:57:50;99189.78;;;14.86;51.47
36304;BME280;22335;49.800;8.596;2023-03-26T20:04:34;99189.34;;;14.84;51.76
36304;BME280;22335;49.800;8.596;2023-03-26T20:11:20;99201.28;;;14.76;51.64
36304;BME280;22335;49.800;8.596;2023-03-26T20:18:04;99204.69;;;14.61;51.78
36304;BME280;22335;49.800;8.596;2023-03-26T20:24:49;99219.09;;;14.45;51.96
36304;BME280;22335;49.800;8.596;2023-03-26T20:31:34;99187.34;;;14.02;52.05
36304;BME280;22335;49.800;8.596;2023-03-26T20:38:18;99226.50;;;13.99;52.34
36304;BME280;22335;49.800;8.596;2023-03-26T20:45:13;99198.28;;;13.57;53.18
36304;BME280;22335;49.800;8.596;2023-03-26T20:52:00;99241.16;;;13.91;52.86
36304;BME280;22335;49.800;8.596;2023-03-26T20:58:45;99250.25;;;14.04;53.22
36304;BME280;22335;49.800;8.596;2023-03-26T21:05:31;99261.19;;;14.13;53.29
36304;BME280;22335;49.800;8.596;2023-03-26T21:12:22;99267.66;;;14.08;53.31
36304;BME280;22335;49.800;8.596;2023-03-26T21:19:10;99287.03;;;14.12;53.66
36304;BME280;22335;49.800;8.596;2023-03-26T21:26:01;99287.34;;;13.98;54.01
36304;BME280;22335;49.800;8.596;2023-03-26T21:32:51;99306.03;;;14.04;54.67
36304;BME280;22335;49.800;8.596;2023-03-26T21:39:36;99315.56;;;13.86;54.57
36304;BME280;22335;49.800;8.596;2023-03-26T21:46:20;99299.91;;;13.57;55.33
36304;BME280;22335;49.800;8.596;2023-03-26T21:53:06;99344.41;;;13.71;55.81
36304;BME280;22335;49.800;8.596;2023-03-26T22:00:00;99360.44;;;13.40;56.61
36304;BME280;22335;49.800;8.596;2023-03-26T22:06:56;99379.75;;;13.05;56.82
36304;BME280;22335;49.800;8.596;2023-03-26T22:13:43;99400.97;;;12.69;56.99
36304;BME280;22335;49.800;8.596;2023-03-26T22:20:27;99417.78;;;12.42;56.62
36304;BME280;22335;49.800;8.596;2023-03-26T22:27:10;99435.34;;;12.15;56.95
36304;BME280;22335;49.800;8.596;2023-03-26T22:33:55;99453.16;;;11.95;57.49
36304;BME280;22335;49.800;8.596;2023-03-26T22:40:39;99469.28;;;11.88;57.57
36304;BME280;22335;49.800;8.596;2023-03-26T22:47:23;99466.31;;;11.75;57.82
36304;BME280;22335;49.800;8.596;2023-03-26T22:54:07;99500.38;;;11.92;57.89
36304;BME280;22335;49.800;8.596;2023-03-26T23:00:59;99442.66;;;11.40;57.89
36304;BME280;22335;49.800;8.596;2023-03-26T23:07:45;99548.53;;;11.84;57.66
36304;BME280;22335;49.800;8.596;2023-03-26T23:14:30;99560.19;;;11.67;58.24
36304;BME280;22335;49.800;8.596;2023-03-26T23:21:15;99585.97;;;11.66;58.02
36304;BME280;22335;49.800;8.596;2023-03-26T23:27:59;99613.88;;;11.68;58.13
36304;BME280;22335;49.800;8.596;2023-03-26T23:34:45;99625.75;;;11.64;58.09
36304;BME280;22335;49.800;8.596;2023-03-26T23:41:28;99634.00;;;11.86;57.83
36304;BME280;22335;49.800;8.596;2023-03-26T23:48:12;99657.09;;;11.94;57.80
36304;BME280;22335;49.800;8.596;2023-03-26T23:54:59;99673.53;;;11.94;57.77
